sensor_id;sensor_type;location;lat;lon;timestamp;temperature;humidity
5459;DHT22;2752;49.992;8.422;2022-12-20T00:02:06;2.40;78.10
5459;DHT22;2752;49.992;8.422;2022-12-20T00:04:32;2.40;78.40
5459;DHT22;2752;49.992;8.422;2022-12-20T00:07:00;2.40;79.10
5459;DHT22;2752;49.992;8.422;2022-12-20T00:09:27;2.40;79.30
5459;DHT22;2752;49.992;8.422;2022-12-20T00:11:54;2.40;79.00
5459;DHT22;2752;49.992;8.422;2022-12-20T00:14:21;2.40;79.00
5459;DHT22;2752;49.992;8.422;2022-12-20T00:16:47;2.40;78.70
5459;DHT22;2752;49.992;8.422;2022-12-20T00:19:15;2.40;79.10
5459;DHT22;2752;49.992;8.422;2022-12-20T00:21:41;2.40;78.60
5459;DHT22;2752;49.992;8.422;2022-12-20T00:24:10;2.40;78.90
5459;DHT22;2752;49.992;8.422;2022-12-20T00:26:36;2.40;78.80
5459;DHT22;2752;49.992;8.422;2022-12-20T00:29:03;2.40;78.60
5459;DHT22;2752;49.992;8.422;2022-12-20T00:31:31;2.40;77.80
5459;DHT22;2752;49.992;8.422;2022-12-20T00:33:59;2.40;78.80
5459;DHT22;2752;49.992;8.422;2022-12-20T00:36:29;2.40;78.70
5459;DHT22;2752;49.992;8.422;2022-12-20T00:38:57;2.40;78.70
5459;DHT22;2752;49.992;8.422;2022-12-20T00:41:27;2.50;79.10
5459;DHT22;2752;49.992;8.422;2022-12-20T00:43:54;2.50;78.20
5459;DHT22;2752;49.992;8.422;2022-12-20T00:46:21;2.50;77.60
5459;DHT22;2752;49.992;8.422;2022-12-20T00:48:49;2.60;78.10
5459;DHT22;2752;49.992;8.422;2022-12-20T00:51:18;2.60;76.30
5459;DHT22;2752;49.992;8.422;2022-12-20T00:53:45;2.60;76.30
5459;DHT22;2752;49.992;8.422;2022-12-20T00:56:12;2.60;76.10
5459;DHT22;2752;49.992;8.422;2022-12-20T00:58:42;2.50;76.80
5459;DHT22;2752;49.992;8.422;2022-12-20T01:01:16;2.70;76.90
5459;DHT22;2752;49.992;8.422;2022-12-20T01:03:43;2.50;76.70
5459;DHT22;2752;49.992;8.422;2022-12-20T01:06:10;2.50;76.80
5459;DHT22;2752;49.992;8.422;2022-12-20T01:08:39;2.50;76.60
5459;DHT22;2752;49.992;8.422;2022-12-20T01:11:07;2.50;77.50
5459;DHT22;2752;49.992;8.422;2022-12-20T01:13:35;2.50;77.90
5459;DHT22;2752;49.992;8.422;2022-12-20T01:16:06;2.60;77.90
5459;DHT22;2752;49.992;8.422;2022-12-20T01:18:33;2.50;77.40
5459;DHT22;2752;49.992;8.422;2022-12-20T01:21:01;2.50;77.10
5459;DHT22;2752;49.992;8.422;2022-12-20T01:23:28;2.60;77.30
5459;DHT22;2752;49.992;8.422;2022-12-20T01:25:57;2.60;76.50
5459;DHT22;2752;49.992;8.422;2022-12-20T01:28:24;2.60;75.90
5459;DHT22;2752;49.992;8.422;2022-12-20T01:30:50;2.50;75.70
5459;DHT22;2752;49.992;8.422;2022-12-20T01:33:18;2.50;77.00
5459;DHT22;2752;49.992;8.422;2022-12-20T01:35:54;2.50;77.60
5459;DHT22;2752;49.992;8.422;2022-12-20T01:38:21;2.50;77.50
5459;DHT22;2752;49.992;8.422;2022-12-20T01:40:47;2.50;78.00
5459;DHT22;2752;49.992;8.422;2022-12-20T01:43:14;2.60;78.10
5459;DHT22;2752;49.992;8.422;2022-12-20T01:45:43;2.70;77.00
5459;DHT22;2752;49.992;8.422;2022-12-20T01:48:10;2.70;76.70
5459;DHT22;2752;49.992;8.422;2022-12-20T01:50:39;2.70;74.80
5459;DHT22;2752;49.992;8.422;2022-12-20T01:53:05;2.80;75.80
5459;DHT22;2752;49.992;8.422;2022-12-20T01:55:32;2.80;73.10
5459;DHT22;2752;49.992;8.422;2022-12-20T01:58:01;2.70;72.10
5459;DHT22;2752;49.992;8.422;2022-12-20T02:00:30;2.60;72.60
5459;DHT22;2752;49.992;8.422;2022-12-20T02:02:58;2.50;73.50
5459;DHT22;2752;49.992;8.422;2022-12-20T02:05:26;2.40;74.40
5459;DHT22;2752;49.992;8.422;2022-12-20T02:07:55;2.40;75.30
5459;DHT22;2752;49.992;8.422;2022-12-20T02:10:26;2.40;76.60
5459;DHT22;2752;49.992;8.422;2022-12-20T02:12:59;2.30;77.50
5459;DHT22;2752;49.992;8.422;2022-12-20T02:15:40;2.40;78.30
5459;DHT22;2752;49.992;8.422;2022-12-20T02:18:19;2.40;77.80
5459;DHT22;2752;49.992;8.422;2022-12-20T02:21:09;2.50;79.70
5459;DHT22;2752;49.992;8.422;2022-12-20T02:26:53;2.50;73.30
5459;DHT22;2752;49.992;8.422;2022-12-20T02:29:25;2.40;74.20
5459;DHT22;2752;49.992;8.422;2022-12-20T02:32:03;2.50;77.10
5459;DHT22;2752;49.992;8.422;2022-12-20T02:34:32;2.50;74.90
5459;DHT22;2752;49.992;8.422;2022-12-20T02:36:59;2.50;73.80
5459;DHT22;2752;49.992;8.422;2022-12-20T02:39:28;2.40;73.90
5459;DHT22;2752;49.992;8.422;2022-12-20T02:41:57;2.50;77.30
5459;DHT22;2752;49.992;8.422;2022-12-20T02:44:29;2.50;74.80
5459;DHT22;2752;49.992;8.422;2022-12-20T02:47:21;2.40;76.30
5459;DHT22;2752;49.992;8.422;2022-12-20T02:49:50;2.50;76.40
5459;DHT22;2752;49.992;8.422;2022-12-20T02:52:21;2.40;76.20
5459;DHT22;2752;49.992;8.422;2022-12-20T02:54:51;2.30;77.50
5459;DHT22;2752;49.992;8.422;2022-12-20T02:57:21;2.20;78.80
5459;DHT22;2752;49.992;8.422;2022-12-20T02:59:57;2.20;80.40
5459;DHT22;2752;49.992;8.422;2022-12-20T03:02:27;2.20;81.90
5459;DHT22;2752;49.992;8.422;2022-12-20T03:05:15;2.20;83.20
5459;DHT22;2752;49.992;8.422;2022-12-20T03:07:42;2.10;83.80
5459;DHT22;2752;49.992;8.422;2022-12-20T03:10:09;2.20;85.10
5459;DHT22;2752;49.992;8.422;2022-12-20T03:12:36;2.20;85.80
5459;DHT22;2752;49.992;8.422;2022-12-20T03:15:03;2.30;86.20
5459;DHT22;2752;49.992;8.422;2022-12-20T03:17:32;2.30;86.20
5459;DHT22;2752;49.992;8.422;2022-12-20T03:19:58;2.30;85.80
5459;DHT22;2752;49.992;8.422;2022-12-20T03:22:25;2.30;86.00
5459;DHT22;2752;49.992;8.422;2022-12-20T03:24:52;2.20;85.50
5459;DHT22;2752;49.992;8.422;2022-12-20T03:27:18;2.40;87.20
5459;DHT22;2752;49.992;8.422;2022-12-20T03:29:45;2.40;84.50
5459;DHT22;2752;49.992;8.422;2022-12-20T03:32:12;2.40;84.50
5459;DHT22;2752;49.992;8.422;2022-12-20T03:34:40;2.30;84.40
5459;DHT22;2752;49.992;8.422;2022-12-20T03:37:06;2.40;85.50
5459;DHT22;2752;49.992;8.422;2022-12-20T03:39:33;2.40;84.40
5459;DHT22;2752;49.992;8.422;2022-12-20T03:42:00;2.40;84.80
5459;DHT22;2752;49.992;8.422;2022-12-20T03:44:26;2.40;85.10
5459;DHT22;2752;49.992;8.422;2022-12-20T03:46:53;2.40;84.80
5459;DHT22;2752;49.992;8.422;2022-12-20T03:49:19;2.50;85.10
5459;DHT22;2752;49.992;8.422;2022-12-20T03:51:47;2.40;84.80
5459;DHT22;2752;49.992;8.422;2022-12-20T03:54:14;2.40;85.50
5459;DHT22;2752;49.992;8.422;2022-12-20T03:56:41;2.50;85.40
5459;DHT22;2752;49.992;8.422;2022-12-20T03:59:07;2.50;84.20
5459;DHT22;2752;49.992;8.422;2022-12-20T04:01:34;2.50;83.40
5459;DHT22;2752;49.992;8.422;2022-12-20T04:04:03;2.50;83.60
5459;DHT22;2752;49.992;8.422;2022-12-20T04:06:30;2.50;83.00
5459;DHT22;2752;49.992;8.422;2022-12-20T04:08:58;2.70;83.40
5459;DHT22;2752;49.992;8.422;2022-12-20T04:11:25;2.60;80.10
5459;DHT22;2752;49.992;8.422;2022-12-20T04:13:52;2.60;80.10
5459;DHT22;2752;49.992;8.422;2022-12-20T04:16:22;2.50;80.80
5459;DHT22;2752;49.992;8.422;2022-12-20T04:18:49;2.40;81.90
5459;DHT22;2752;49.992;8.422;2022-12-20T04:21:20;2.40;83.30
5459;DHT22;2752;49.992;8.422;2022-12-20T04:23:47;2.50;84.90
5459;DHT22;2752;49.992;8.422;2022-12-20T04:26:16;2.50;84.80
5459;DHT22;2752;49.992;8.422;2022-12-20T04:28:42;2.50;84.90
5459;DHT22;2752;49.992;8.422;2022-12-20T04:31:09;2.60;84.70
5459;DHT22;2752;49.992;8.422;2022-12-20T04:33:37;2.50;85.00
5459;DHT22;2752;49.992;8.422;2022-12-20T04:36:04;2.60;85.20
5459;DHT22;2752;49.992;8.422;2022-12-20T04:38:32;2.60;85.10
5459;DHT22;2752;49.992;8.422;2022-12-20T04:40:58;2.60;85.30
5459;DHT22;2752;49.992;8.422;2022-12-20T04:43:26;2.60;83.90
5459;DHT22;2752;49.992;8.422;2022-12-20T04:45:54;2.50;84.10
5459;DHT22;2752;49.992;8.422;2022-12-20T04:48:22;2.60;84.30
5459;DHT22;2752;49.992;8.422;2022-12-20T04:50:52;2.60;83.90
5459;DHT22;2752;49.992;8.422;2022-12-20T04:53:19;2.60;83.80
5459;DHT22;2752;49.992;8.422;2022-12-20T04:56:04;2.70;84.80
5459;DHT22;2752;49.992;8.422;2022-12-20T04:58:32;2.60;82.60
5459;DHT22;2752;49.992;8.422;2022-12-20T05:00:58;2.60;81.90
5459;DHT22;2752;49.992;8.422;2022-12-20T05:03:26;2.60;81.90
5459;DHT22;2752;49.992;8.422;2022-12-20T05:05:53;2.50;82.40
5459;DHT22;2752;49.992;8.422;2022-12-20T05:08:19;2.50;82.70
5459;DHT22;2752;49.992;8.422;2022-12-20T05:10:46;2.40;83.80
5459;DHT22;2752;49.992;8.422;2022-12-20T05:13:13;2.40;84.50
5459;DHT22;2752;49.992;8.422;2022-12-20T05:15:42;2.40;85.00
5459;DHT22;2752;49.992;8.422;2022-12-20T05:18:09;2.40;84.80
5459;DHT22;2752;49.992;8.422;2022-12-20T05:20:36;2.40;85.40
5459;DHT22;2752;49.992;8.422;2022-12-20T05:23:02;2.40;86.40
5459;DHT22;2752;49.992;8.422;2022-12-20T05:25:49;2.40;86.70
5459;DHT22;2752;49.992;8.422;2022-12-20T05:28:30;2.40;87.10
5459;DHT22;2752;49.992;8.422;2022-12-20T05:30:58;2.40;87.90
5459;DHT22;2752;49.992;8.422;2022-12-20T05:33:25;2.40;87.90
5459;DHT22;2752;49.992;8.422;2022-12-20T05:35:52;2.50;88.00
5459;DHT22;2752;49.992;8.422;2022-12-20T05:38:19;2.50;88.00
5459;DHT22;2752;49.992;8.422;2022-12-20T05:40:47;2.60;86.80
5459;DHT22;2752;49.992;8.422;2022-12-20T05:43:14;2.60;86.50
5459;DHT22;2752;49.992;8.422;2022-12-20T05:45:45;2.60;86.30
5459;DHT22;2752;49.992;8.422;2022-12-20T05:48:14;2.70;86.00
5459;DHT22;2752;49.992;8.422;2022-12-20T05:50:41;2.70;85.60
5459;DHT22;2752;49.992;8.422;2022-12-20T05:53:09;2.60;85.10
5459;DHT22;2752;49.992;8.422;2022-12-20T05:55:35;2.60;85.00
5459;DHT22;2752;49.992;8.422;2022-12-20T05:58:05;2.60;84.70
5459;DHT22;2752;49.992;8.422;2022-12-20T06:00:31;2.60;85.90
5459;DHT22;2752;49.992;8.422;2022-12-20T06:02:58;2.70;84.90
5459;DHT22;2752;49.992;8.422;2022-12-20T06:05:26;2.60;84.20
5459;DHT22;2752;49.992;8.422;2022-12-20T06:07:53;2.60;84.70
5459;DHT22;2752;49.992;8.422;2022-12-20T06:10:20;2.60;84.90
5459;DHT22;2752;49.992;8.422;2022-12-20T06:12:46;2.70;85.30
5459;DHT22;2752;49.992;8.422;2022-12-20T06:15:13;2.60;85.70
5459;DHT22;2752;49.992;8.422;2022-12-20T06:17:40;2.60;85.80
5459;DHT22;2752;49.992;8.422;2022-12-20T06:20:08;2.60;86.00
5459;DHT22;2752;49.992;8.422;2022-12-20T06:22:37;2.70;86.50
5459;DHT22;2752;49.992;8.422;2022-12-20T06:25:05;2.70;84.90
5459;DHT22;2752;49.992;8.422;2022-12-20T06:27:33;2.60;84.40
5459;DHT22;2752;49.992;8.422;2022-12-20T06:30:00;2.60;85.20
5459;DHT22;2752;49.992;8.422;2022-12-20T06:32:27;2.50;85.40
5459;DHT22;2752;49.992;8.422;2022-12-20T06:34:53;2.50;86.40
5459;DHT22;2752;49.992;8.422;2022-12-20T06:37:20;2.50;87.70
5459;DHT22;2752;49.992;8.422;2022-12-20T06:39:48;2.70;88.10
5459;DHT22;2752;49.992;8.422;2022-12-20T06:42:14;2.80;87.40
5459;DHT22;2752;49.992;8.422;2022-12-20T06:44:41;2.70;84.90
5459;DHT22;2752;49.992;8.422;2022-12-20T06:47:08;2.70;85.30
5459;DHT22;2752;49.992;8.422;2022-12-20T06:49:34;2.70;86.40
5459;DHT22;2752;49.992;8.422;2022-12-20T06:52:02;2.80;86.90
5459;DHT22;2752;49.992;8.422;2022-12-20T06:54:28;2.70;86.80
5459;DHT22;2752;49.992;8.422;2022-12-20T06:56:56;2.70;87.00
5459;DHT22;2752;49.992;8.422;2022-12-20T06:59:23;2.30;87.80
5459;DHT22;2752;49.992;8.422;2022-12-20T07:01:50;2.80;88.00
5459;DHT22;2752;49.992;8.422;2022-12-20T07:04:16;2.80;87.70
5459;DHT22;2752;49.992;8.422;2022-12-20T07:06:43;2.90;87.90
5459;DHT22;2752;49.992;8.422;2022-12-20T07:09:10;2.90;87.30
5459;DHT22;2752;49.992;8.422;2022-12-20T07:11:37;2.90;87.70
5459;DHT22;2752;49.992;8.422;2022-12-20T07:14:05;2.90;87.40
5459;DHT22;2752;49.992;8.422;2022-12-20T07:16:31;2.90;87.40
5459;DHT22;2752;49.992;8.422;2022-12-20T07:18:58;2.90;87.10
5459;DHT22;2752;49.992;8.422;2022-12-20T07:21:25;2.90;86.50
5459;DHT22;2752;49.992;8.422;2022-12-20T07:23:53;3.00;86.80
5459;DHT22;2752;49.992;8.422;2022-12-20T07:26:20;2.90;85.00
5459;DHT22;2752;49.992;8.422;2022-12-20T07:28:47;3.10;84.40
5459;DHT22;2752;49.992;8.422;2022-12-20T07:31:15;3.10;82.30
5459;DHT22;2752;49.992;8.422;2022-12-20T07:33:41;3.20;83.60
5459;DHT22;2752;49.992;8.422;2022-12-20T07:36:10;3.20;81.00
5459;DHT22;2752;49.992;8.422;2022-12-20T07:38:37;3.10;80.40
5459;DHT22;2752;49.992;8.422;2022-12-20T07:41:06;3.10;81.80
5459;DHT22;2752;49.992;8.422;2022-12-20T07:43:33;3.00;82.70
5459;DHT22;2752;49.992;8.422;2022-12-20T07:46:00;2.90;83.70
5459;DHT22;2752;49.992;8.422;2022-12-20T07:48:29;2.90;85.20
5459;DHT22;2752;49.992;8.422;2022-12-20T07:51:01;3.00;86.40
5459;DHT22;2752;49.992;8.422;2022-12-20T07:53:30;3.00;86.70
5459;DHT22;2752;49.992;8.422;2022-12-20T07:55:59;3.00;87.20
5459;DHT22;2752;49.992;8.422;2022-12-20T07:58:27;3.10;88.30
5459;DHT22;2752;49.992;8.422;2022-12-20T08:00:55;3.10;88.20
5459;DHT22;2752;49.992;8.422;2022-12-20T08:03:24;3.10;87.90
5459;DHT22;2752;49.992;8.422;2022-12-20T08:05:57;3.10;87.60
5459;DHT22;2752;49.992;8.422;2022-12-20T08:08:28;3.10;87.70
5459;DHT22;2752;49.992;8.422;2022-12-20T08:10:55;3.20;88.00
5459;DHT22;2752;49.992;8.422;2022-12-20T08:13:21;3.20;87.20
5459;DHT22;2752;49.992;8.422;2022-12-20T08:15:48;3.20;86.20
5459;DHT22;2752;49.992;8.422;2022-12-20T08:18:15;3.30;87.20
5459;DHT22;2752;49.992;8.422;2022-12-20T08:20:41;3.40;85.80
5459;DHT22;2752;49.992;8.422;2022-12-20T08:23:09;3.50;86.10
5459;DHT22;2752;49.992;8.422;2022-12-20T08:25:36;3.50;85.00
5459;DHT22;2752;49.992;8.422;2022-12-20T08:28:03;3.50;84.40
5459;DHT22;2752;49.992;8.422;2022-12-20T08:30:29;3.60;84.30
5459;DHT22;2752;49.992;8.422;2022-12-20T08:32:56;3.70;84.00
5459;DHT22;2752;49.992;8.422;2022-12-20T08:35:23;3.80;83.10
5459;DHT22;2752;49.992;8.422;2022-12-20T08:37:50;3.90;82.50
5459;DHT22;2752;49.992;8.422;2022-12-20T08:40:19;3.90;80.70
5459;DHT22;2752;49.992;8.422;2022-12-20T08:42:46;3.80;78.40
5459;DHT22;2752;49.992;8.422;2022-12-20T08:45:13;3.80;76.90
5459;DHT22;2752;49.992;8.422;2022-12-20T08:47:39;3.80;77.50
5459;DHT22;2752;49.992;8.422;2022-12-20T08:50:07;3.80;77.10
5459;DHT22;2752;49.992;8.422;2022-12-20T08:52:34;3.80;77.20
5459;DHT22;2752;49.992;8.422;2022-12-20T08:55:01;3.80;77.50
5459;DHT22;2752;49.992;8.422;2022-12-20T08:57:29;3.80;77.60
5459;DHT22;2752;49.992;8.422;2022-12-20T08:59:55;3.80;77.40
5459;DHT22;2752;49.992;8.422;2022-12-20T09:02:22;3.80;77.60
5459;DHT22;2752;49.992;8.422;2022-12-20T09:04:49;3.70;77.80
5459;DHT22;2752;49.992;8.422;2022-12-20T09:07:17;3.70;79.10
5459;DHT22;2752;49.992;8.422;2022-12-20T09:09:45;3.80;78.70
5459;DHT22;2752;49.992;8.422;2022-12-20T09:12:12;3.80;78.60
5459;DHT22;2752;49.992;8.422;2022-12-20T09:14:40;3.90;78.90
5459;DHT22;2752;49.992;8.422;2022-12-20T09:17:07;3.80;79.40
5459;DHT22;2752;49.992;8.422;2022-12-20T09:19:33;3.90;79.30
5459;DHT22;2752;49.992;8.422;2022-12-20T09:22:00;4.00;79.00
5459;DHT22;2752;49.992;8.422;2022-12-20T09:24:26;4.00;78.70
5459;DHT22;2752;49.992;8.422;2022-12-20T09:26:53;4.00;78.40
5459;DHT22;2752;49.992;8.422;2022-12-20T09:29:20;4.10;77.70
5459;DHT22;2752;49.992;8.422;2022-12-20T09:31:49;4.10;76.60
5459;DHT22;2752;49.992;8.422;2022-12-20T09:34:16;4.10;75.90
5459;DHT22;2752;49.992;8.422;2022-12-20T09:36:42;4.10;75.10
5459;DHT22;2752;49.992;8.422;2022-12-20T09:39:10;4.20;75.30
5459;DHT22;2752;49.992;8.422;2022-12-20T09:41:38;4.20;74.90
5459;DHT22;2752;49.992;8.422;2022-12-20T09:44:12;4.30;74.70
5459;DHT22;2752;49.992;8.422;2022-12-20T09:46:40;4.30;72.50
5459;DHT22;2752;49.992;8.422;2022-12-20T09:49:11;4.40;73.00
5459;DHT22;2752;49.992;8.422;2022-12-20T09:52:03;4.40;73.00
5459;DHT22;2752;49.992;8.422;2022-12-20T09:54:38;4.40;71.00
5459;DHT22;2752;49.992;8.422;2022-12-20T09:57:11;4.50;71.70
5459;DHT22;2752;49.992;8.422;2022-12-20T09:59:43;4.50;72.00
5459;DHT22;2752;49.992;8.422;2022-12-20T10:02:11;4.50;72.30
5459;DHT22;2752;49.992;8.422;2022-12-20T10:04:39;4.60;73.10
5459;DHT22;2752;49.992;8.422;2022-12-20T10:07:17;4.60;71.60
5459;DHT22;2752;49.992;8.422;2022-12-20T10:10:09;4.60;72.10
5459;DHT22;2752;49.992;8.422;2022-12-20T10:12:46;4.70;71.60
5459;DHT22;2752;49.992;8.422;2022-12-20T10:15:19;4.70;71.70
5459;DHT22;2752;49.992;8.422;2022-12-20T10:17:57;4.80;70.40
5459;DHT22;2752;49.992;8.422;2022-12-20T10:20:45;4.80;69.30
5459;DHT22;2752;49.992;8.422;2022-12-20T10:23:22;4.80;69.50
5459;DHT22;2752;49.992;8.422;2022-12-20T10:25:51;4.80;69.40
5459;DHT22;2752;49.992;8.422;2022-12-20T10:28:24;4.70;69.20
5459;DHT22;2752;49.992;8.422;2022-12-20T10:30:51;4.80;69.70
5459;DHT22;2752;49.992;8.422;2022-12-20T10:33:25;4.80;69.70
5459;DHT22;2752;49.992;8.422;2022-12-20T10:35:54;4.90;69.90
5459;DHT22;2752;49.992;8.422;2022-12-20T10:38:21;4.90;69.10
5459;DHT22;2752;49.992;8.422;2022-12-20T10:40:59;5.00;69.10
5459;DHT22;2752;49.992;8.422;2022-12-20T10:43:27;5.00;69.00
5459;DHT22;2752;49.992;8.422;2022-12-20T10:46:01;5.00;68.40
5459;DHT22;2752;49.992;8.422;2022-12-20T10:48:30;5.10;67.90
5459;DHT22;2752;49.992;8.422;2022-12-20T10:51:01;5.10;67.00
5459;DHT22;2752;49.992;8.422;2022-12-20T10:53:29;5.10;67.30
5459;DHT22;2752;49.992;8.422;2022-12-20T10:56:15;5.10;66.70
5459;DHT22;2752;49.992;8.422;2022-12-20T10:58:51;5.20;66.20
5459;DHT22;2752;49.992;8.422;2022-12-20T11:01:19;5.30;65.50
5459;DHT22;2752;49.992;8.422;2022-12-20T11:03:52;5.40;64.70
5459;DHT22;2752;49.992;8.422;2022-12-20T11:06:24;5.40;63.70
5459;DHT22;2752;49.992;8.422;2022-12-20T11:08:51;5.50;62.80
5459;DHT22;2752;49.992;8.422;2022-12-20T11:11:19;5.50;60.20
5459;DHT22;2752;49.992;8.422;2022-12-20T11:13:47;5.60;59.80
5459;DHT22;2752;49.992;8.422;2022-12-20T11:16:25;5.60;58.80
5459;DHT22;2752;49.992;8.422;2022-12-20T11:19:00;5.60;58.50
5459;DHT22;2752;49.992;8.422;2022-12-20T11:21:33;5.70;58.50
5459;DHT22;2752;49.992;8.422;2022-12-20T11:24:09;5.70;57.70
5459;DHT22;2752;49.992;8.422;2022-12-20T11:26:49;6.00;57.50
5459;DHT22;2752;49.992;8.422;2022-12-20T11:29:40;6.10;54.20
5459;DHT22;2752;49.992;8.422;2022-12-20T11:32:17;6.30;49.60
5459;DHT22;2752;49.992;8.422;2022-12-20T11:34:56;6.40;45.00
5459;DHT22;2752;49.992;8.422;2022-12-20T11:37:26;6.30;46.60
5459;DHT22;2752;49.992;8.422;2022-12-20T11:40:11;6.20;49.50
5459;DHT22;2752;49.992;8.422;2022-12-20T14:03:52;6.20;49.90
5459;DHT22;2752;49.992;8.422;2022-12-20T14:06:20;6.90;44.00
5459;DHT22;2752;49.992;8.422;2022-12-20T14:08:49;6.90;45.70
5459;DHT22;2752;49.992;8.422;2022-12-20T14:11:19;6.80;45.30
5459;DHT22;2752;49.992;8.422;2022-12-20T14:16:22;6.80;45.60
5459;DHT22;2752;49.992;8.422;2022-12-20T14:18:53;6.80;46.90
5459;DHT22;2752;49.992;8.422;2022-12-20T14:21:25;6.70;45.70
5459;DHT22;2752;49.992;8.422;2022-12-20T14:23:54;6.70;46.90
5459;DHT22;2752;49.992;8.422;2022-12-20T14:26:23;6.60;48.60
5459;DHT22;2752;49.992;8.422;2022-12-20T14:28:52;6.60;50.50
5459;DHT22;2752;49.992;8.422;2022-12-20T14:31:24;6.50;52.70
5459;DHT22;2752;49.992;8.422;2022-12-20T14:34:01;6.50;53.90
5459;DHT22;2752;49.992;8.422;2022-12-20T14:36:28;6.50;53.80
5459;DHT22;2752;49.992;8.422;2022-12-20T14:38:56;6.30;54.10
5459;DHT22;2752;49.992;8.422;2022-12-20T14:41:34;6.40;53.70
5459;DHT22;2752;49.992;8.422;2022-12-20T14:44:15;6.40;54.40
5459;DHT22;2752;49.992;8.422;2022-12-20T14:46:47;6.40;55.00
5459;DHT22;2752;49.992;8.422;2022-12-20T14:49:20;6.40;55.10
5459;DHT22;2752;49.992;8.422;2022-12-20T14:51:48;6.30;56.60
5459;DHT22;2752;49.992;8.422;2022-12-20T14:54:17;6.40;56.80
5459;DHT22;2752;49.992;8.422;2022-12-20T14:56:45;6.30;57.60
5459;DHT22;2752;49.992;8.422;2022-12-20T14:59:15;6.30;57.60
5459;DHT22;2752;49.992;8.422;2022-12-20T15:01:42;6.30;58.20
5459;DHT22;2752;49.992;8.422;2022-12-20T15:04:21;6.30;59.30
5459;DHT22;2752;49.992;8.422;2022-12-20T15:06:48;6.10;59.30
5459;DHT22;2752;49.992;8.422;2022-12-20T15:09:17;6.30;60.50
5459;DHT22;2752;49.992;8.422;2022-12-20T15:11:44;6.30;60.10
5459;DHT22;2752;49.992;8.422;2022-12-20T15:14:25;6.30;60.20
5459;DHT22;2752;49.992;8.422;2022-12-20T15:16:53;6.40;59.90
5459;DHT22;2752;49.992;8.422;2022-12-20T15:19:20;6.40;59.90
5459;DHT22;2752;49.992;8.422;2022-12-20T15:21:47;6.30;60.50
5459;DHT22;2752;49.992;8.422;2022-12-20T15:24:16;6.20;60.30
5459;DHT22;2752;49.992;8.422;2022-12-20T15:26:44;6.20;61.60
5459;DHT22;2752;49.992;8.422;2022-12-20T15:29:14;6.20;62.10
5459;DHT22;2752;49.992;8.422;2022-12-20T15:31:44;6.30;64.40
5459;DHT22;2752;49.992;8.422;2022-12-20T15:34:13;6.30;61.30
5459;DHT22;2752;49.992;8.422;2022-12-20T15:36:40;6.20;61.10
5459;DHT22;2752;49.992;8.422;2022-12-20T15:39:10;6.20;62.20
5459;DHT22;2752;49.992;8.422;2022-12-20T15:41:40;6.10;63.30
5459;DHT22;2752;49.992;8.422;2022-12-20T15:44:12;6.00;65.10
5459;DHT22;2752;49.992;8.422;2022-12-20T15:46:40;6.00;66.30
5459;DHT22;2752;49.992;8.422;2022-12-20T15:49:13;6.00;67.30
5459;DHT22;2752;49.992;8.422;2022-12-20T15:51:40;6.00;68.00
5459;DHT22;2752;49.992;8.422;2022-12-20T15:54:16;6.00;68.10
5459;DHT22;2752;49.992;8.422;2022-12-20T15:56:46;5.90;69.10
5459;DHT22;2752;49.992;8.422;2022-12-20T15:59:12;6.00;69.40
5459;DHT22;2752;49.992;8.422;2022-12-20T16:01:39;6.00;68.90
5459;DHT22;2752;49.992;8.422;2022-12-20T16:04:06;6.00;68.40
5459;DHT22;2752;49.992;8.422;2022-12-20T16:06:35;6.00;68.50
5459;DHT22;2752;49.992;8.422;2022-12-20T16:09:01;6.00;68.20
5459;DHT22;2752;49.992;8.422;2022-12-20T16:11:30;5.90;67.90
5459;DHT22;2752;49.992;8.422;2022-12-20T16:13:58;5.90;68.60
5459;DHT22;2752;49.992;8.422;2022-12-20T16:16:26;5.90;70.30
5459;DHT22;2752;49.992;8.422;2022-12-20T16:18:53;5.90;72.20
5459;DHT22;2752;49.992;8.422;2022-12-20T16:21:21;5.90;72.40
5459;DHT22;2752;49.992;8.422;2022-12-20T16:23:50;5.80;73.30
5459;DHT22;2752;49.992;8.422;2022-12-20T16:26:18;5.80;73.80
5459;DHT22;2752;49.992;8.422;2022-12-20T16:28:46;5.80;74.00
5459;DHT22;2752;49.992;8.422;2022-12-20T16:31:20;5.90;74.20
5459;DHT22;2752;49.992;8.422;2022-12-20T16:33:48;5.90;73.90
5459;DHT22;2752;49.992;8.422;2022-12-20T16:36:15;5.90;73.90
5459;DHT22;2752;49.992;8.422;2022-12-20T16:38:42;5.90;73.90
5459;DHT22;2752;49.992;8.422;2022-12-20T16:41:14;5.90;73.90
5459;DHT22;2752;49.992;8.422;2022-12-20T16:43:42;6.00;73.60
5459;DHT22;2752;49.992;8.422;2022-12-20T16:46:10;6.00;73.90
5459;DHT22;2752;49.992;8.422;2022-12-20T16:48:37;6.00;71.80
5459;DHT22;2752;49.992;8.422;2022-12-20T16:51:20;5.90;73.90
5459;DHT22;2752;49.992;8.422;2022-12-20T16:53:47;5.90;73.90
5459;DHT22;2752;49.992;8.422;2022-12-20T16:56:17;5.90;73.90
5459;DHT22;2752;49.992;8.422;2022-12-20T16:58:44;5.90;74.80
5459;DHT22;2752;49.992;8.422;2022-12-20T17:01:13;5.90;75.20
5459;DHT22;2752;49.992;8.422;2022-12-20T17:03:42;5.90;75.50
5459;DHT22;2752;49.992;8.422;2022-12-20T17:06:09;5.90;76.00
5459;DHT22;2752;49.992;8.422;2022-12-20T17:08:36;5.90;76.40
5459;DHT22;2752;49.992;8.422;2022-12-20T17:11:11;5.90;76.60
5459;DHT22;2752;49.992;8.422;2022-12-20T17:13:40;5.90;76.30
5459;DHT22;2752;49.992;8.422;2022-12-20T17:16:09;5.90;76.40
5459;DHT22;2752;49.992;8.422;2022-12-20T17:18:37;5.90;76.50
5459;DHT22;2752;49.992;8.422;2022-12-20T17:21:17;6.00;76.40
5459;DHT22;2752;49.992;8.422;2022-12-20T17:23:45;5.90;75.60
5459;DHT22;2752;49.992;8.422;2022-12-20T17:26:14;5.90;75.90
5459;DHT22;2752;49.992;8.422;2022-12-20T17:28:42;6.00;75.40
5459;DHT22;2752;49.992;8.422;2022-12-20T17:31:20;6.00;75.60
5459;DHT22;2752;49.992;8.422;2022-12-20T17:33:49;5.90;75.80
5459;DHT22;2752;49.992;8.422;2022-12-20T17:36:15;6.00;75.30
5459;DHT22;2752;49.992;8.422;2022-12-20T17:38:42;6.00;75.20
5459;DHT22;2752;49.992;8.422;2022-12-20T17:41:27;6.00;75.60
5459;DHT22;2752;49.992;8.422;2022-12-20T17:43:57;6.00;76.00
5459;DHT22;2752;49.992;8.422;2022-12-20T17:46:25;6.00;76.10
5459;DHT22;2752;49.992;8.422;2022-12-20T17:48:52;6.00;76.00
5459;DHT22;2752;49.992;8.422;2022-12-20T17:51:20;6.00;75.90
5459;DHT22;2752;49.992;8.422;2022-12-20T17:53:49;6.00;76.50
5459;DHT22;2752;49.992;8.422;2022-12-20T17:56:18;6.00;75.90
5459;DHT22;2752;49.992;8.422;2022-12-20T17:58:45;6.00;76.10
5459;DHT22;2752;49.992;8.422;2022-12-20T18:01:21;6.00;76.80
5459;DHT22;2752;49.992;8.422;2022-12-20T18:03:50;6.00;78.30
5459;DHT22;2752;49.992;8.422;2022-12-20T18:06:17;6.00;77.30
5459;DHT22;2752;49.992;8.422;2022-12-20T18:08:47;6.00;77.20
5459;DHT22;2752;49.992;8.422;2022-12-20T18:11:14;6.10;76.90
5459;DHT22;2752;49.992;8.422;2022-12-20T18:13:41;6.10;76.70
5459;DHT22;2752;49.992;8.422;2022-12-20T18:16:09;6.10;77.70
5459;DHT22;2752;49.992;8.422;2022-12-20T18:18:37;6.00;78.00
5459;DHT22;2752;49.992;8.422;2022-12-20T18:21:06;6.10;78.30
5459;DHT22;2752;49.992;8.422;2022-12-20T18:23:34;6.00;78.60
5459;DHT22;2752;49.992;8.422;2022-12-20T18:26:08;6.00;79.50
5459;DHT22;2752;49.992;8.422;2022-12-20T18:28:36;6.00;79.70
5459;DHT22;2752;49.992;8.422;2022-12-20T18:31:04;6.10;80.40
5459;DHT22;2752;49.992;8.422;2022-12-20T18:33:31;6.10;80.70
5459;DHT22;2752;49.992;8.422;2022-12-20T18:36:04;6.00;81.40
5459;DHT22;2752;49.992;8.422;2022-12-20T18:38:32;6.00;82.10
5459;DHT22;2752;49.992;8.422;2022-12-20T18:41:00;6.00;81.80
5459;DHT22;2752;49.992;8.422;2022-12-20T18:43:28;6.00;81.90
5459;DHT22;2752;49.992;8.422;2022-12-20T18:45:55;6.00;82.70
5459;DHT22;2752;49.992;8.422;2022-12-20T18:48:23;6.00;83.40
5459;DHT22;2752;49.992;8.422;2022-12-20T18:50:49;6.00;83.40
5459;DHT22;2752;49.992;8.422;2022-12-20T18:53:17;5.90;83.00
5459;DHT22;2752;49.992;8.422;2022-12-20T18:55:44;5.90;84.00
5459;DHT22;2752;49.992;8.422;2022-12-20T18:58:11;5.90;84.10